createdAt,value
2018-06-17T00:02:20.668Z,18.13
2018-06-17T00:04:49.974Z,18.12
2018-06-17T00:07:19.377Z,18.05
2018-06-17T00:09:48.689Z,18.06
2018-06-17T00:12:18.048Z,18.02
2018-06-17T00:14:47.387Z,18.05
2018-06-17T00:17:16.683Z,18.05
2018-06-17T00:19:46.035Z,18.05
2018-06-17T00:22:15.381Z,18.06
2018-06-17T00:24:44.737Z,18.04
2018-06-17T00:27:14.085Z,18.00
2018-06-17T00:29:43.458Z,18.00
2018-06-17T00:32:12.810Z,17.95
2018-06-17T00:34:42.164Z,17.94
2018-06-17T00:37:11.580Z,17.97
2018-06-17T00:39:40.914Z,17.90
2018-06-17T00:42:10.219Z,17.93
2018-06-17T00:44:39.519Z,17.83
2018-06-17T00:47:08.872Z,17.83
2018-06-17T00:49:38.188Z,17.83
2018-06-17T00:52:07.686Z,17.83
2018-06-17T00:54:37.099Z,17.88
2018-06-17T00:57:23.512Z,17.88
2018-06-17T00:59:52.836Z,17.88
2018-06-17T01:02:22.586Z,17.89
2018-06-17T01:04:51.900Z,17.89
2018-06-17T01:07:21.265Z,17.94
2018-06-17T01:09:50.615Z,17.93
2018-06-17T01:12:19.947Z,17.86
2018-06-17T01:14:49.319Z,17.87
2018-06-17T01:17:18.990Z,17.86
2018-06-17T01:19:48.544Z,17.87
2018-06-17T01:22:17.869Z,17.88
2018-06-17T01:24:47.202Z,17.82
2018-06-17T01:27:16.526Z,17.81
2018-06-17T01:29:45.875Z,17.73
2018-06-17T01:32:15.251Z,17.78
2018-06-17T01:34:44.568Z,17.79
2018-06-17T01:37:13.970Z,17.78
2018-06-17T01:39:43.031Z,17.81
2018-06-17T01:42:12.401Z,17.79
2018-06-17T01:44:41.680Z,17.66
2018-06-17T01:47:11.001Z,17.56
2018-06-17T01:49:40.341Z,17.51
2018-06-17T01:52:09.736Z,17.60
2018-06-17T01:54:39.063Z,17.60
2018-06-17T01:57:08.426Z,17.59
2018-06-17T01:59:37.802Z,17.61
2018-06-17T02:02:07.255Z,17.60
2018-06-17T02:04:41.817Z,17.60
2018-06-17T02:07:16.513Z,17.60
2018-06-17T02:09:51.890Z,17.61
2018-06-17T02:12:21.265Z,17.68
2018-06-17T02:14:55.603Z,17.64
2018-06-17T02:17:25.846Z,17.64
2018-06-17T02:19:55.773Z,17.59
2018-06-17T02:22:25.398Z,17.59
2018-06-17T02:24:54.750Z,17.59
2018-06-17T02:27:24.915Z,17.55
2018-06-17T02:29:54.285Z,17.51
2018-06-17T02:32:23.694Z,17.53
2018-06-17T02:34:53.033Z,17.59
2018-06-17T02:37:22.189Z,17.47
2018-06-17T02:39:51.505Z,17.39
2018-06-17T02:42:20.866Z,17.42
2018-06-17T02:44:55.448Z,17.35
2018-06-17T02:47:30.181Z,17.32
2018-06-17T02:50:04.813Z,17.39
2018-06-17T02:52:39.412Z,17.38
2018-06-17T02:55:08.810Z,17.38
2018-06-17T02:57:38.170Z,17.36
2018-06-17T03:00:07.541Z,17.44
2018-06-17T03:02:36.851Z,17.40
2018-06-17T03:05:06.196Z,17.34
2018-06-17T03:07:35.554Z,17.36
2018-06-17T03:10:04.868Z,17.42
2018-06-17T03:12:34.228Z,17.44
2018-06-17T03:15:03.649Z,17.46
2018-06-17T03:17:32.973Z,17.45
2018-06-17T03:20:02.325Z,17.45
2018-06-17T03:22:31.640Z,17.45
2018-06-17T03:25:06.275Z,17.51
2018-06-17T03:27:40.858Z,17.51
2018-06-17T03:30:15.350Z,17.48
2018-06-17T03:32:50.164Z,17.42
2018-06-17T03:35:24.896Z,17.42
2018-06-17T03:37:54.287Z,17.45
2018-06-17T03:40:23.743Z,17.42
2018-06-17T03:42:53.105Z,17.44
2018-06-17T03:45:22.446Z,17.38
2018-06-17T03:47:52.167Z,17.43
2018-06-17T03:50:21.456Z,17.44
2018-06-17T03:52:50.824Z,17.46
2018-06-17T03:55:20.147Z,17.48
2018-06-17T03:57:49.445Z,17.51
2018-06-17T04:00:18.824Z,17.52
2018-06-17T04:02:48.174Z,17.50
2018-06-17T04:05:22.921Z,17.50
2018-06-17T04:07:53.192Z,17.53
2018-06-17T04:10:22.605Z,17.57
2018-06-17T04:12:51.989Z,17.57
2018-06-17T04:15:21.278Z,17.59
2018-06-17T04:17:50.657Z,17.56
2018-06-17T04:20:19.944Z,17.61
2018-06-17T04:22:49.313Z,17.68
2018-06-17T04:25:18.686Z,17.68
2018-06-17T04:27:47.986Z,17.69
2018-06-17T04:30:17.323Z,17.71
2018-06-17T04:32:46.636Z,17.77
2018-06-17T04:35:16.014Z,17.80
2018-06-17T04:37:45.293Z,17.81
2018-06-17T04:40:14.733Z,17.82
2018-06-17T04:42:44.067Z,17.87
2018-06-17T04:45:13.418Z,17.87
2018-06-17T04:47:42.809Z,17.89
2018-06-17T04:50:12.569Z,17.95
2018-06-17T04:52:41.926Z,18.03
2018-06-17T04:55:11.320Z,18.11
2018-06-17T04:57:40.648Z,18.17
2018-06-17T05:00:09.974Z,18.19
2018-06-17T05:02:39.419Z,18.23
2018-06-17T05:05:08.773Z,18.29
2018-06-17T05:07:38.114Z,18.31
2018-06-17T05:10:07.793Z,18.37
2018-06-17T05:12:37.129Z,18.38
2018-06-17T05:15:06.526Z,18.41
2018-06-17T05:17:35.841Z,18.43
2018-06-17T05:20:05.182Z,18.47
2018-06-17T05:22:34.492Z,18.55
2018-06-17T05:25:03.868Z,18.60
2018-06-17T05:27:33.237Z,18.58
2018-06-17T05:30:02.534Z,18.58
2018-06-17T05:32:31.868Z,18.67
2018-06-17T05:37:35.942Z,18.65
2018-06-17T05:40:05.333Z,18.70
2018-06-17T05:42:34.684Z,18.76
2018-06-17T05:45:04.066Z,18.79
2018-06-17T05:47:33.608Z,18.81
2018-06-17T05:50:02.992Z,18.90
2018-06-17T05:52:32.394Z,18.92
2018-06-17T05:55:01.799Z,18.97
2018-06-17T05:57:31.145Z,19.02
2018-06-17T06:00:00.570Z,19.04
2018-06-17T06:03:54.641Z,19.03
2018-06-17T06:06:24.125Z,19.16
2018-06-17T06:08:55.141Z,19.21
2018-06-17T06:11:24.572Z,19.33
2018-06-17T06:13:54.013Z,19.51
2018-06-17T06:16:23.445Z,19.61
2018-06-17T06:18:53.008Z,19.72
2018-06-17T06:21:22.325Z,19.72
2018-06-17T06:23:51.709Z,19.73
2018-06-17T06:26:21.038Z,19.81
2018-06-17T06:28:50.673Z,19.90
2018-06-17T06:31:20.074Z,20.01
2018-06-17T06:33:49.476Z,20.07
2018-06-17T06:36:19.022Z,20.06
2018-06-17T06:38:48.520Z,20.03
2018-06-17T06:41:17.881Z,20.02
2018-06-17T06:43:47.309Z,20.03
2018-06-17T06:46:16.613Z,20.13
2018-06-17T06:48:45.981Z,20.20
2018-06-17T06:51:15.349Z,20.27
2018-06-17T06:53:44.777Z,20.32
2018-06-17T06:56:14.082Z,20.42
2018-06-17T06:58:43.429Z,20.58
2018-06-17T07:01:12.795Z,20.64
2018-06-17T07:03:59.194Z,20.72
2018-06-17T07:06:45.718Z,20.75
2018-06-17T07:10:27.330Z,20.81
2018-06-17T07:12:56.726Z,20.81
2018-06-17T07:15:43.211Z,20.80
2018-06-17T07:18:31.265Z,20.80
2018-06-17T07:21:00.612Z,20.82
2018-06-17T07:23:30.202Z,20.88
2018-06-17T07:26:43.792Z,20.87
2018-06-17T07:29:34.368Z,20.97
2018-06-17T07:32:03.707Z,21.11
2018-06-17T07:34:33.178Z,21.22
2018-06-17T07:37:02.511Z,21.25
2018-06-17T07:41:41.748Z,21.41
2018-06-17T07:44:11.126Z,21.45
2018-06-17T07:46:40.809Z,21.48
2018-06-17T07:49:30.404Z,21.59
2018-06-17T07:52:17.660Z,21.64
2018-06-17T07:54:47.366Z,21.75
2018-06-17T07:57:18.133Z,21.78
2018-06-17T07:59:47.468Z,21.92
2018-06-17T08:02:17.039Z,21.99
2018-06-17T08:04:46.442Z,22.13
2018-06-17T08:07:15.880Z,22.19
2018-06-17T08:09:45.247Z,22.39
2018-06-17T08:12:14.694Z,22.34
2018-06-17T08:14:44.124Z,22.40
2018-06-17T08:17:13.467Z,22.48
2018-06-17T08:21:58.856Z,22.56
2018-06-17T08:24:28.401Z,22.56
2018-06-17T08:26:57.517Z,22.62
2018-06-17T08:29:27.144Z,22.78
2018-06-17T08:31:56.386Z,22.68
2018-06-17T08:34:25.497Z,22.55
2018-06-17T08:36:54.629Z,22.47
2018-06-17T08:39:24.651Z,22.36
2018-06-17T08:41:53.841Z,22.40
2018-06-17T08:44:23.302Z,22.36
2018-06-17T08:46:52.519Z,22.46
2018-06-17T08:49:21.830Z,22.59
2018-06-17T08:51:51.058Z,22.71
2018-06-17T08:54:20.249Z,22.73
2018-06-17T08:56:49.369Z,22.77
2018-06-17T08:59:18.537Z,22.85
2018-06-17T09:01:47.682Z,23.08
2018-06-17T09:04:17.057Z,23.17
2018-06-17T09:06:46.210Z,23.10
2018-06-17T09:09:15.333Z,23.11
2018-06-17T09:11:44.540Z,23.12
2018-06-17T09:14:13.707Z,23.08
2018-06-17T09:16:42.845Z,23.20
2018-06-17T09:19:11.973Z,23.26
2018-06-17T09:21:41.133Z,23.46
2018-06-17T09:24:10.252Z,23.57
2018-06-17T09:26:39.381Z,23.46
2018-06-17T09:29:08.517Z,23.46
2018-06-17T09:31:37.805Z,23.49
2018-06-17T09:34:07.542Z,23.58
2018-06-17T09:36:36.955Z,23.83
2018-06-17T09:39:08.873Z,23.92
2018-06-17T09:41:38.090Z,23.93
2018-06-17T09:44:07.008Z,24.15
2018-06-17T09:46:36.142Z,24.02
2018-06-17T09:49:05.681Z,24.19
2018-06-17T09:51:34.868Z,24.21
2018-06-17T09:54:04.021Z,24.16
2018-06-17T09:56:33.393Z,24.22
2018-06-17T09:59:02.577Z,24.03
2018-06-17T10:01:31.803Z,24.04
2018-06-17T10:04:00.999Z,24.04
2018-06-17T10:06:30.150Z,23.95
2018-06-17T10:08:59.391Z,23.98
2018-06-17T10:11:28.577Z,23.84
2018-06-17T10:13:57.705Z,23.91
2018-06-17T10:16:27.254Z,23.85
2018-06-17T10:18:56.642Z,23.74
2018-06-17T10:21:25.906Z,23.70
2018-06-17T10:23:55.113Z,23.81
2018-06-17T10:26:24.269Z,23.84
2018-06-17T10:28:53.274Z,24.02
2018-06-17T10:31:22.352Z,24.02
2018-06-17T10:33:51.549Z,23.99
2018-06-17T10:36:20.944Z,24.11
2018-06-17T10:38:50.313Z,24.20
2018-06-17T10:41:19.842Z,24.26
2018-06-17T10:43:49.263Z,24.29
2018-06-17T10:46:18.428Z,24.36
2018-06-17T10:48:47.603Z,24.15
2018-06-17T10:51:16.748Z,23.93
2018-06-17T10:53:45.878Z,23.79
2018-06-17T10:56:15.123Z,23.70
2018-06-17T10:58:44.256Z,23.52
2018-06-17T11:01:13.458Z,23.62
2018-06-17T11:03:42.680Z,23.57
2018-06-17T11:06:11.791Z,23.51
2018-06-17T11:08:41.041Z,23.54
2018-06-17T11:11:09.962Z,23.39
2018-06-17T11:13:39.165Z,23.26
2018-06-17T11:16:08.283Z,23.36
2018-06-17T11:18:37.409Z,23.27
2018-06-17T11:21:06.553Z,23.19
2018-06-17T11:23:35.681Z,23.23
2018-06-17T11:26:04.845Z,23.15
2018-06-17T11:28:33.983Z,23.15
2018-06-17T11:31:03.189Z,23.11
2018-06-17T11:33:32.325Z,23.07
2018-06-17T11:36:01.462Z,23.11
2018-06-17T11:38:30.717Z,23.18
2018-06-17T11:40:59.839Z,23.43
2018-06-17T11:43:28.965Z,23.29
2018-06-17T11:45:58.118Z,23.17
2018-06-17T11:48:27.232Z,23.00
2018-06-17T11:50:56.410Z,22.93
2018-06-17T11:53:25.730Z,22.74
2018-06-17T11:55:55.042Z,22.66
2018-06-17T11:58:24.264Z,22.63
2018-06-17T12:00:53.385Z,22.68
2018-06-17T12:03:22.606Z,22.42
2018-06-17T12:05:51.745Z,22.30
2018-06-17T12:08:20.884Z,22.34
2018-06-17T12:10:50.045Z,22.43
2018-06-17T12:13:19.150Z,22.42
2018-06-17T12:15:48.282Z,22.50
2018-06-17T12:18:17.417Z,22.42
2018-06-17T12:20:46.546Z,22.44
2018-06-17T12:23:15.745Z,22.49
2018-06-17T12:25:44.861Z,22.48
2018-06-17T12:28:14.043Z,22.53
2018-06-17T12:30:43.266Z,22.54
2018-06-17T12:33:12.389Z,22.61
2018-06-17T12:35:41.517Z,22.82
2018-06-17T12:38:10.665Z,22.75
2018-06-17T12:40:39.861Z,22.69
2018-06-17T12:43:08.947Z,22.65
2018-06-17T12:45:38.083Z,22.64
2018-06-17T12:48:07.216Z,22.69
2018-06-17T12:50:36.429Z,22.49
2018-06-17T12:53:05.497Z,22.52
2018-06-17T12:55:34.736Z,22.60
2018-06-17T12:58:03.848Z,22.81
2018-06-17T13:00:32.963Z,23.05
2018-06-17T13:03:02.198Z,23.53
2018-06-17T13:05:31.288Z,23.76
2018-06-17T13:08:00.409Z,23.88
2018-06-17T13:10:29.570Z,24.02
2018-06-17T13:12:58.717Z,24.26
2018-06-17T13:15:27.876Z,24.46
2018-06-17T13:17:57.041Z,24.50
2018-06-17T13:20:26.193Z,24.54
2018-06-17T13:22:55.322Z,24.67
2018-06-17T13:25:24.569Z,24.80
2018-06-17T13:27:53.700Z,24.78
2018-06-17T13:30:22.834Z,24.88
2018-06-17T13:32:52.090Z,25.11
2018-06-17T13:35:21.349Z,24.93
2018-06-17T13:37:51.225Z,24.88
2018-06-17T13:40:20.431Z,24.82
2018-06-17T13:42:49.631Z,24.84
2018-06-17T13:45:18.951Z,24.90
2018-06-17T13:47:48.264Z,25.10
2018-06-17T13:50:17.371Z,25.13
2018-06-17T13:52:46.498Z,24.92
2018-06-17T13:55:15.821Z,24.85
2018-06-17T13:57:44.987Z,24.85
2018-06-17T14:00:14.157Z,24.86
2018-06-17T14:02:43.383Z,25.05
2018-06-17T14:05:12.534Z,25.12
2018-06-17T14:07:41.657Z,25.16
2018-06-17T14:10:10.878Z,25.14
2018-06-17T14:12:40.020Z,25.00
2018-06-17T14:15:09.848Z,24.90
2018-06-17T14:17:38.756Z,24.91
2018-06-17T14:20:08.385Z,24.82
2018-06-17T14:22:37.561Z,24.98
2018-06-17T14:25:06.757Z,25.04
2018-06-17T14:27:35.873Z,25.05
2018-06-17T14:30:06.071Z,25.05
2018-06-17T14:32:35.607Z,25.12
2018-06-17T14:35:04.746Z,25.13
2018-06-17T14:37:34.145Z,25.00
2018-06-17T14:40:03.288Z,25.07
2018-06-17T14:43:35.538Z,25.08
2018-06-17T14:46:10.146Z,25.09
2018-06-17T14:48:44.640Z,25.00
2018-06-17T14:51:19.241Z,24.96
2018-06-17T14:53:48.441Z,24.99
2018-06-17T14:56:17.652Z,25.11
2018-06-17T14:58:46.836Z,24.97
2018-06-17T15:01:16.091Z,24.85
2018-06-17T15:03:45.362Z,24.80
2018-06-17T15:06:14.498Z,24.77
2018-06-17T15:08:44.189Z,24.64
2018-06-17T15:11:13.481Z,24.70
2018-06-17T15:13:42.637Z,24.62
2018-06-17T15:16:11.773Z,24.37
2018-06-17T15:18:40.930Z,24.25
2018-06-17T15:21:10.027Z,24.35
2018-06-17T15:23:39.161Z,24.36
2018-06-17T15:26:08.414Z,24.27
2018-06-17T15:28:37.533Z,24.19
2018-06-17T15:31:12.082Z,24.11
2018-06-17T15:33:46.477Z,24.08
2018-06-17T15:36:20.879Z,23.91
2018-06-17T15:38:52.502Z,23.87
2018-06-17T15:41:25.275Z,23.69
2018-06-17T15:43:56.434Z,23.65
2018-06-17T15:46:26.070Z,23.56
2018-06-17T15:48:55.388Z,23.55
2018-06-17T15:51:24.548Z,23.64
2018-06-17T15:53:53.689Z,23.50
2018-06-17T15:56:22.808Z,23.47
2018-06-17T15:58:52.017Z,23.52
2018-06-17T16:01:21.141Z,23.60
2018-06-17T16:03:50.285Z,23.59
2018-06-17T16:06:19.445Z,23.76
2018-06-17T16:08:48.674Z,23.64
2018-06-17T16:11:17.796Z,23.58
2018-06-17T16:13:52.177Z,23.52
2018-06-17T16:16:26.712Z,23.65
2018-06-17T16:19:01.298Z,23.60
2018-06-17T16:21:30.502Z,23.47
2018-06-17T16:23:59.625Z,23.53
2018-06-17T16:26:28.758Z,23.48
2018-06-17T16:28:57.897Z,23.49
2018-06-17T16:31:27.041Z,23.36
2018-06-17T16:33:56.166Z,23.45
2018-06-17T16:36:25.305Z,23.26
2018-06-17T16:38:54.442Z,23.24
2018-06-17T16:41:23.632Z,23.32
2018-06-17T16:43:52.624Z,23.31
2018-06-17T16:46:21.759Z,23.30
2018-06-17T16:48:50.880Z,23.40
2018-06-17T16:51:25.429Z,23.15
2018-06-17T16:53:59.829Z,23.07
2018-06-17T16:56:34.434Z,23.18
2018-06-17T16:59:08.785Z,23.24
2018-06-17T17:01:37.938Z,23.21
2018-06-17T17:04:07.095Z,23.10
2018-06-17T17:06:36.224Z,23.08
2018-06-17T17:09:09.035Z,23.10
2018-06-17T17:11:38.796Z,22.97
2018-06-17T17:14:07.945Z,22.97
2018-06-17T17:16:37.172Z,22.94
2018-06-17T17:19:06.381Z,22.97
2018-06-17T17:21:35.503Z,22.75
2018-06-17T17:24:04.769Z,22.72
2018-06-17T17:26:33.772Z,22.61
2018-06-17T17:29:02.883Z,22.26
2018-06-17T17:31:37.256Z,22.16
2018-06-17T17:34:11.762Z,21.90
2018-06-17T17:36:46.214Z,21.74
2018-06-17T17:40:18.497Z,21.42
2018-06-17T17:42:47.718Z,21.28
2018-06-17T17:45:18.236Z,21.01
2018-06-17T17:47:47.405Z,20.90
2018-06-17T17:50:16.489Z,20.68
2018-06-17T17:52:45.723Z,20.58
2018-06-17T17:55:14.859Z,20.43
2018-06-17T17:57:44.009Z,20.29
2018-06-17T18:00:13.141Z,20.16
2018-06-17T18:02:42.267Z,20.05
2018-06-17T18:05:11.617Z,20.04
2018-06-17T18:07:40.807Z,20.05
2018-06-17T18:10:09.933Z,20.03
2018-06-17T18:12:39.090Z,20.05
2018-06-17T18:15:08.610Z,19.98
2018-06-17T18:17:37.725Z,20.07
2018-06-17T18:20:06.869Z,20.08
2018-06-17T18:22:36.018Z,20.05
2018-06-17T18:25:11.314Z,20.04
2018-06-17T18:27:45.673Z,20.06
2018-06-17T18:30:20.049Z,20.20
2018-06-17T18:32:54.453Z,20.12
2018-06-17T18:35:28.977Z,20.04
2018-06-17T18:37:58.118Z,20.09
2018-06-17T18:40:27.252Z,20.13
2018-06-17T18:42:56.542Z,20.09
2018-06-17T18:45:25.701Z,19.96
2018-06-17T18:47:54.834Z,19.85
2018-06-17T18:50:23.985Z,19.42
2018-06-17T18:52:53.121Z,19.45
2018-06-17T18:55:22.331Z,19.44
2018-06-17T18:57:51.485Z,19.02
2018-06-17T19:00:20.605Z,18.92
2018-06-17T19:02:49.758Z,18.85
2018-06-17T19:05:18.892Z,18.70
2018-06-17T19:07:48.026Z,18.45
2018-06-17T19:10:22.479Z,18.35
2018-06-17T19:12:56.925Z,18.30
2018-06-17T19:15:31.201Z,18.23
2018-06-17T19:18:12.741Z,18.17
2018-06-17T19:20:41.901Z,18.28
2018-06-17T19:23:11.073Z,18.21
2018-06-17T19:25:40.208Z,18.16
2018-06-17T19:28:09.518Z,18.20
2018-06-17T19:30:38.649Z,18.10
2018-06-17T19:33:07.769Z,18.06
2018-06-17T19:35:36.901Z,18.02
2018-06-17T19:38:05.835Z,18.05
2018-06-17T19:40:34.974Z,18.01
2018-06-17T19:43:04.110Z,18.03
2018-06-17T19:45:33.289Z,18.03
2018-06-17T19:48:02.370Z,18.02
2018-06-17T19:51:34.401Z,18.03
2018-06-17T19:54:08.805Z,18.03
2018-06-17T19:56:43.241Z,18.04
2018-06-17T19:59:17.656Z,18.03
2018-06-17T20:01:46.814Z,18.00
2018-06-17T20:04:15.940Z,17.98
2018-06-17T20:06:45.061Z,18.03
2018-06-17T20:09:14.505Z,18.02
2018-06-17T20:11:43.717Z,18.04
2018-06-17T20:14:12.789Z,18.05
2018-06-17T20:16:41.913Z,18.01
2018-06-17T20:19:11.538Z,18.03
2018-06-17T20:21:40.697Z,18.09
2018-06-17T20:24:09.892Z,18.06
2018-06-17T20:26:39.114Z,18.08
2018-06-17T20:29:08.293Z,18.03
2018-06-17T20:31:42.673Z,18.04
2018-06-17T20:34:17.210Z,18.00
2018-06-17T20:36:51.660Z,18.04
2018-06-17T20:39:26.233Z,18.11
2018-06-17T20:42:00.810Z,18.13
2018-06-17T20:44:30.101Z,18.09
2018-06-17T20:46:59.453Z,18.13
2018-06-17T20:49:28.673Z,18.15
2018-06-17T20:51:58.001Z,18.14
2018-06-17T20:54:27.305Z,18.20
2018-06-17T20:56:56.518Z,18.18
2018-06-17T20:59:25.705Z,18.21
2018-06-17T21:01:55.026Z,18.19
2018-06-17T21:04:24.348Z,18.17
2018-06-17T21:06:53.669Z,18.14
2018-06-17T21:09:22.999Z,18.17
2018-06-17T21:11:52.377Z,18.21
2018-06-17T21:14:21.580Z,18.25
2018-06-17T21:16:50.831Z,18.25
2018-06-17T21:19:25.397Z,18.31
2018-06-17T21:21:59.777Z,18.22
2018-06-17T21:25:32.970Z,18.23
2018-06-17T21:28:02.722Z,18.17
2018-06-17T21:30:32.049Z,18.15
2018-06-17T21:33:01.289Z,18.16
2018-06-17T21:35:30.509Z,18.15
2018-06-17T21:37:59.705Z,18.12
2018-06-17T21:40:28.943Z,18.13
2018-06-17T21:42:58.470Z,18.09
2018-06-17T21:45:27.689Z,18.12
2018-06-17T21:47:56.932Z,18.15
2018-06-17T21:50:26.306Z,18.11
2018-06-17T21:52:55.697Z,18.06
2018-06-17T21:55:25.083Z,18.07
2018-06-17T21:57:54.208Z,18.00
2018-06-17T22:00:24.349Z,18.03
2018-06-17T22:02:53.558Z,18.06
2018-06-17T22:05:22.693Z,18.07
2018-06-17T22:07:57.065Z,18.08
2018-06-17T22:10:31.585Z,18.11
2018-06-17T22:13:01.805Z,17.99
2018-06-17T22:15:36.317Z,18.01
2018-06-17T22:18:05.941Z,17.97
2018-06-17T22:20:35.058Z,17.96
2018-06-17T22:23:04.216Z,17.97
2018-06-17T22:25:33.344Z,17.95
2018-06-17T22:28:02.489Z,17.95
2018-06-17T22:30:31.607Z,17.94
2018-06-17T22:33:00.753Z,17.95
2018-06-17T22:35:30.033Z,17.88
2018-06-17T22:37:59.202Z,17.84
2018-06-17T22:40:28.313Z,17.81
2018-06-17T22:42:57.216Z,17.84
2018-06-17T22:45:26.337Z,17.85
2018-06-17T22:47:59.277Z,17.76
2018-06-17T22:50:28.525Z,17.83
2018-06-17T22:54:14.448Z,17.78
2018-06-17T22:56:48.973Z,17.80
2018-06-17T22:59:23.753Z,17.73
2018-06-17T23:01:58.105Z,17.71
2018-06-17T23:04:32.637Z,17.74
2018-06-17T23:07:07.193Z,17.73
2018-06-17T23:09:39.594Z,17.74
2018-06-17T23:12:08.535Z,17.80
2018-06-17T23:14:37.606Z,17.83
2018-06-17T23:17:06.900Z,17.79
2018-06-17T23:19:36.018Z,17.74
2018-06-17T23:22:05.165Z,17.77
2018-06-17T23:24:34.287Z,17.76
2018-06-17T23:27:03.417Z,17.69
2018-06-17T23:29:32.587Z,17.67
2018-06-17T23:32:01.741Z,17.80
2018-06-17T23:34:30.849Z,17.59
2018-06-17T23:36:59.985Z,17.52
2018-06-17T23:39:29.111Z,17.54
2018-06-17T23:41:58.226Z,17.57
2018-06-17T23:44:27.378Z,17.50
2018-06-17T23:47:01.914Z,17.54
2018-06-17T23:49:36.396Z,17.48
2018-06-17T23:52:10.749Z,17.40
2018-06-17T23:54:45.346Z,17.39
2018-06-17T23:57:14.485Z,17.37
2018-06-17T23:59:43.605Z,17.36
